createdAt,value
2018-02-17T00:00:07.456Z,0.40
2018-02-17T00:02:34.912Z,0.50
2018-02-17T00:05:02.368Z,0.50
2018-02-17T00:07:29.772Z,0.40
2018-02-17T00:09:57.982Z,0.30
2018-02-17T00:12:25.461Z,0.30
2018-02-17T00:14:52.921Z,0.40
2018-02-17T00:17:20.404Z,0.40
2018-02-17T00:19:47.842Z,0.40
2018-02-17T00:22:15.292Z,0.40
2018-02-17T00:24:42.725Z,0.40
2018-02-17T00:27:10.220Z,0.40
2018-02-17T00:29:37.671Z,0.40
2018-02-17T00:32:05.093Z,0.50
2018-02-17T00:34:33.315Z,0.40
2018-02-17T00:37:00.762Z,0.40
2018-02-17T00:39:28.176Z,0.40
2018-02-17T00:41:56.377Z,0.40
2018-02-17T00:44:23.800Z,0.40
2018-02-17T00:46:51.241Z,0.40
2018-02-17T00:49:18.674Z,0.30
2018-02-17T00:51:46.127Z,0.30
2018-02-17T00:54:13.593Z,0.30
2018-02-17T00:56:41.025Z,0.30
2018-02-17T00:59:08.512Z,0.20
2018-02-17T01:01:35.950Z,0.20
2018-02-17T01:04:03.372Z,0.10
2018-02-17T01:06:30.801Z,0.10
2018-02-17T01:08:58.244Z,0.00
2018-02-17T01:11:25.672Z,0.00
2018-02-17T01:13:53.166Z,-0.10
2018-02-17T01:16:20.600Z,-0.10
2018-02-17T01:18:48.029Z,-0.10
2018-02-17T01:21:16.252Z,-0.20
2018-02-17T01:23:43.696Z,-0.20
2018-02-17T01:26:11.118Z,-0.20
2018-02-17T01:28:39.337Z,-0.20
2018-02-17T01:31:06.896Z,-0.20
2018-02-17T01:33:34.308Z,-0.20
2018-02-17T01:36:02.536Z,-0.20
2018-02-17T01:38:29.988Z,-0.30
2018-02-17T01:40:57.453Z,-0.20
2018-02-17T01:43:24.901Z,-0.20
2018-02-17T01:45:52.317Z,-0.30
2018-02-17T01:48:20.513Z,-0.30
2018-02-17T01:50:47.948Z,-0.30
2018-02-17T01:53:17.027Z,-0.30
2018-02-17T01:55:44.452Z,-0.40
2018-02-17T01:58:11.881Z,-0.30
2018-02-17T02:00:39.364Z,-0.30
2018-02-17T02:03:06.804Z,-0.30
2018-02-17T02:05:34.231Z,-0.30
2018-02-17T02:08:01.737Z,-0.30
2018-02-17T02:10:29.192Z,-0.30
2018-02-17T02:12:56.625Z,-0.30
2018-02-17T02:15:24.068Z,-0.30
2018-02-17T02:17:52.273Z,-0.30
2018-02-17T02:20:19.701Z,-0.30
2018-02-17T02:22:47.907Z,-0.30
2018-02-17T02:25:15.332Z,-0.40
2018-02-17T02:27:43.529Z,-0.40
2018-02-17T02:30:11.006Z,-0.40
2018-02-17T02:32:38.438Z,-0.40
2018-02-17T02:35:05.921Z,-0.40
2018-02-17T02:37:33.370Z,-0.40
2018-02-17T02:40:00.804Z,-0.40
2018-02-17T02:42:29.017Z,-0.40
2018-02-17T02:44:56.459Z,-0.50
2018-02-17T02:47:23.928Z,-0.40
2018-02-17T02:49:51.385Z,-0.40
2018-02-17T02:52:18.848Z,-0.40
2018-02-17T02:54:46.276Z,-0.40
2018-02-17T02:57:13.700Z,-0.50
2018-02-17T02:59:41.922Z,-0.50
2018-02-17T03:02:09.348Z,-0.50
2018-02-17T03:04:37.558Z,-0.50
2018-02-17T03:07:05.034Z,-0.50
2018-02-17T03:09:32.417Z,-0.50
2018-02-17T03:11:59.939Z,-0.60
2018-02-17T03:14:27.382Z,-0.50
2018-02-17T03:16:54.891Z,-0.60
2018-02-17T03:19:22.410Z,-0.50
2018-02-17T03:21:49.866Z,-0.60
2018-02-17T03:24:17.296Z,-0.60
2018-02-17T03:26:44.728Z,-0.60
2018-02-17T03:29:12.952Z,-0.60
2018-02-17T03:31:40.409Z,-0.70
2018-02-17T03:34:07.840Z,-0.70
2018-02-17T03:36:35.326Z,-0.70
2018-02-17T03:39:02.752Z,-0.70
2018-02-17T03:41:30.180Z,-0.60
2018-02-17T03:43:57.616Z,-0.60
2018-02-17T03:46:25.045Z,-0.60
2018-02-17T03:48:52.478Z,-0.60
2018-02-17T03:51:19.912Z,-0.60
2018-02-17T03:53:48.114Z,-0.60
2018-02-17T03:56:15.540Z,-0.70
2018-02-17T03:58:43.764Z,-0.60
2018-02-17T04:01:11.192Z,-0.60
2018-02-17T04:03:38.615Z,-0.60
2018-02-17T04:06:06.140Z,-0.60
2018-02-17T04:08:33.569Z,-0.60
2018-02-17T04:11:01.048Z,-0.70
2018-02-17T04:13:28.500Z,-0.70
2018-02-17T04:15:55.920Z,-0.80
2018-02-17T04:18:24.132Z,-0.80
2018-02-17T04:20:51.609Z,-0.80
2018-02-17T04:23:19.048Z,-0.80
2018-02-17T04:25:46.512Z,-0.80
2018-02-17T04:28:13.967Z,-0.90
2018-02-17T04:30:41.424Z,-0.90
2018-02-17T04:33:08.875Z,-0.90
2018-02-17T04:35:36.345Z,-0.80
2018-02-17T04:38:03.772Z,-0.80
2018-02-17T04:40:32.784Z,-0.80
2018-02-17T04:43:06.144Z,-0.80
2018-02-17T04:45:50.140Z,-0.80
2018-02-17T04:48:34.236Z,-0.80
2018-02-17T04:51:18.116Z,-0.90
2018-02-17T04:53:51.364Z,-0.90
2018-02-17T04:56:20.496Z,-0.90
2018-02-17T04:59:05.604Z,-0.90
2018-02-17T05:01:48.685Z,-0.90
2018-02-17T05:04:21.948Z,-0.90
2018-02-17T05:06:57.700Z,-0.90
2018-02-17T05:09:25.908Z,-0.90
2018-02-17T05:11:53.338Z,-0.90
2018-02-17T05:14:27.274Z,-0.90
2018-02-17T05:17:13.471Z,-0.90
2018-02-17T05:20:00.704Z,-0.90
2018-02-17T05:22:28.136Z,-0.90
2018-02-17T05:24:55.568Z,-0.80
2018-02-17T05:27:39.444Z,-0.80
2018-02-17T05:30:24.724Z,-0.80
2018-02-17T05:32:57.826Z,-0.90
2018-02-17T05:35:26.724Z,-0.80
2018-02-17T05:37:54.159Z,-0.80
2018-02-17T05:40:24.497Z,-0.90
2018-02-17T05:42:51.931Z,-0.90
2018-02-17T05:45:19.373Z,-0.90
2018-02-17T05:47:46.810Z,-0.90
2018-02-17T05:50:15.419Z,-1.00
2018-02-17T05:52:42.848Z,-1.00
2018-02-17T05:55:11.173Z,-1.00
2018-02-17T05:57:38.727Z,-1.00
2018-02-17T06:00:06.140Z,-1.00
2018-02-17T06:02:34.464Z,-1.00
2018-02-17T06:05:01.911Z,-1.00
2018-02-17T06:07:29.337Z,-0.90
2018-02-17T06:09:57.648Z,-1.00
2018-02-17T06:12:25.121Z,-1.00
2018-02-17T06:14:52.569Z,-1.00
2018-02-17T06:17:20.123Z,-0.90
2018-02-17T06:19:48.325Z,-0.90
2018-02-17T06:22:15.792Z,-0.90
2018-02-17T06:24:43.244Z,-0.90
2018-02-17T06:27:10.713Z,-0.90
2018-02-17T06:29:38.152Z,-0.90
2018-02-17T06:32:05.593Z,-0.90
2018-02-17T06:34:33.020Z,-0.90
2018-02-17T06:37:00.459Z,-0.90
2018-02-17T06:39:27.896Z,-0.80
2018-02-17T06:41:55.338Z,-0.80
2018-02-17T06:44:22.761Z,-0.80
2018-02-17T06:46:50.977Z,-0.70
2018-02-17T06:49:18.436Z,-0.80
2018-02-17T06:51:45.869Z,-0.80
2018-02-17T06:54:13.308Z,-0.80
2018-02-17T06:56:41.531Z,-0.70
2018-02-17T06:59:08.973Z,-0.80
2018-02-17T07:01:36.396Z,-0.80
2018-02-17T07:04:04.616Z,-0.70
2018-02-17T07:06:32.068Z,-0.70
2018-02-17T07:08:59.581Z,-0.70
2018-02-17T07:11:27.008Z,-0.70
2018-02-17T07:13:54.457Z,-0.70
2018-02-17T07:16:21.896Z,-0.70
2018-02-17T07:18:49.437Z,-0.60
2018-02-17T07:21:16.887Z,-0.60
2018-02-17T07:23:44.312Z,-0.60
2018-02-17T07:26:12.529Z,-0.60
2018-02-17T07:28:39.956Z,-0.70
2018-02-17T07:31:07.440Z,-0.60
2018-02-17T07:33:34.880Z,-0.60
2018-02-17T07:36:02.318Z,-0.60
2018-02-17T07:38:30.632Z,-0.50
2018-02-17T07:40:58.087Z,-0.50
2018-02-17T07:43:25.544Z,-0.50
2018-02-17T07:45:52.976Z,-0.50
2018-02-17T07:48:20.412Z,-0.50
2018-02-17T07:50:48.630Z,-0.40
2018-02-17T07:53:16.060Z,-0.40
2018-02-17T07:55:43.489Z,-0.40
2018-02-17T07:58:11.008Z,-0.40
2018-02-17T08:00:38.452Z,-0.40
2018-02-17T08:03:05.897Z,-0.30
2018-02-17T08:05:33.380Z,-0.30
2018-02-17T08:08:00.900Z,-0.20
2018-02-17T08:10:29.104Z,-0.20
2018-02-17T08:12:56.537Z,-0.20
2018-02-17T08:15:24.769Z,-0.10
2018-02-17T08:17:52.220Z,-0.10
2018-02-17T08:20:19.660Z,0.00
2018-02-17T08:22:47.120Z,0.10
2018-02-17T08:25:14.604Z,0.10
2018-02-17T08:27:42.139Z,0.20
2018-02-17T08:30:09.585Z,0.30
2018-02-17T08:32:37.029Z,0.30
2018-02-17T08:35:04.518Z,0.40
2018-02-17T08:37:31.968Z,0.40
2018-02-17T08:39:59.424Z,0.50
2018-02-17T08:42:26.884Z,0.50
2018-02-17T08:44:54.329Z,0.60
2018-02-17T08:47:21.753Z,0.60
2018-02-17T08:49:49.949Z,0.70
2018-02-17T08:52:17.408Z,0.70
2018-02-17T08:54:44.874Z,0.80
2018-02-17T08:57:12.309Z,0.90
2018-02-17T08:59:39.748Z,0.90
2018-02-17T09:02:07.963Z,1.10
2018-02-17T09:04:35.393Z,1.00
2018-02-17T09:07:03.603Z,1.20
2018-02-17T09:09:31.064Z,1.20
2018-02-17T09:11:58.497Z,1.30
2018-02-17T09:14:25.976Z,1.40
2018-02-17T09:16:53.405Z,1.50
2018-02-17T09:19:20.832Z,1.50
2018-02-17T09:21:48.348Z,1.60
2018-02-17T09:24:15.789Z,1.70
2018-02-17T09:26:43.220Z,1.80
2018-02-17T09:29:11.448Z,2.10
2018-02-17T09:31:38.902Z,2.10
2018-02-17T09:34:06.370Z,2.20
2018-02-17T09:36:33.812Z,2.40
2018-02-17T09:39:01.262Z,2.50
2018-02-17T09:41:28.685Z,2.60
2018-02-17T09:43:56.185Z,2.70
2018-02-17T09:46:23.651Z,2.80
2018-02-17T09:48:51.107Z,2.90
2018-02-17T09:51:18.552Z,3.00
2018-02-17T09:53:45.989Z,3.00
2018-02-17T09:56:13.469Z,3.10
2018-02-17T09:58:40.924Z,3.20
2018-02-17T10:01:08.371Z,3.30
2018-02-17T10:03:35.796Z,3.40
2018-02-17T10:06:04.120Z,3.60
2018-02-17T10:08:31.578Z,3.60
2018-02-17T10:10:59.037Z,3.80
2018-02-17T10:13:26.495Z,3.90
2018-02-17T10:15:53.941Z,4.00
2018-02-17T10:18:21.360Z,4.10
2018-02-17T10:20:49.577Z,4.20
2018-02-17T10:23:17.028Z,4.20
2018-02-17T10:25:44.458Z,4.30
2018-02-17T10:28:11.899Z,4.50
2018-02-17T10:30:40.101Z,4.70
2018-02-17T10:33:07.547Z,4.70
2018-02-17T10:35:35.035Z,4.80
2018-02-17T10:38:03.192Z,5.00
2018-02-17T10:40:30.709Z,5.00
2018-02-17T10:42:58.234Z,5.10
2018-02-17T10:45:25.677Z,5.20
2018-02-17T10:47:53.113Z,5.30
2018-02-17T10:50:20.550Z,5.50
2018-02-17T10:52:48.777Z,5.70
2018-02-17T10:55:17.049Z,5.60
2018-02-17T10:57:44.509Z,5.70
2018-02-17T11:00:11.942Z,5.80
2018-02-17T11:02:39.416Z,5.90
2018-02-17T11:05:06.872Z,5.90
2018-02-17T11:07:34.305Z,5.90
2018-02-17T11:10:01.793Z,6.00
2018-02-17T11:12:29.223Z,6.00
2018-02-17T11:14:56.652Z,6.10
2018-02-17T11:17:24.853Z,6.10
2018-02-17T11:19:52.328Z,6.10
2018-02-17T11:22:19.765Z,6.10
2018-02-17T11:24:47.256Z,6.10
2018-02-17T11:27:14.814Z,6.10
2018-02-17T11:29:42.242Z,6.10
2018-02-17T11:32:09.698Z,6.20
2018-02-17T11:34:37.132Z,6.20
2018-02-17T11:37:05.330Z,6.30
2018-02-17T11:39:32.758Z,6.30
2018-02-17T11:42:00.232Z,6.30
2018-02-17T11:44:28.416Z,6.40
2018-02-17T11:46:55.910Z,6.40
2018-02-17T11:49:23.364Z,6.40
2018-02-17T11:51:50.814Z,6.50
2018-02-17T11:54:18.249Z,6.50
2018-02-17T11:56:45.684Z,6.50
2018-02-17T11:59:13.880Z,6.60
2018-02-17T12:01:41.316Z,6.60
2018-02-17T12:04:09.551Z,6.60
2018-02-17T12:06:36.967Z,6.60
2018-02-17T12:09:04.461Z,6.70
2018-02-17T12:11:31.906Z,6.70
2018-02-17T12:13:59.357Z,6.80
2018-02-17T12:16:26.820Z,6.80
2018-02-17T12:18:54.290Z,6.90
2018-02-17T12:21:21.732Z,6.90
2018-02-17T12:23:49.188Z,6.90
2018-02-17T12:26:16.644Z,7.00
2018-02-17T12:28:44.081Z,7.00
2018-02-17T12:31:11.513Z,7.00
2018-02-17T12:33:39.726Z,6.90
2018-02-17T12:36:07.181Z,6.90
2018-02-17T12:38:34.682Z,6.90
2018-02-17T12:41:02.893Z,7.00
2018-02-17T12:43:31.098Z,7.10
2018-02-17T12:45:58.550Z,7.10
2018-02-17T12:48:25.973Z,7.20
2018-02-17T12:50:54.322Z,7.40
2018-02-17T12:53:21.770Z,7.40
2018-02-17T12:55:49.300Z,7.50
2018-02-17T12:58:16.718Z,7.60
2018-02-17T13:00:44.947Z,7.70
2018-02-17T13:03:12.454Z,7.70
2018-02-17T13:05:40.652Z,7.80
2018-02-17T13:08:08.077Z,7.70
2018-02-17T13:10:36.309Z,7.80
2018-02-17T13:13:03.742Z,7.70
2018-02-17T13:15:31.179Z,7.80
2018-02-17T13:17:59.494Z,7.80
2018-02-17T13:20:26.947Z,7.80
2018-02-17T13:22:54.410Z,7.80
2018-02-17T13:25:21.860Z,7.90
2018-02-17T13:27:49.294Z,7.90
2018-02-17T13:30:17.490Z,8.00
2018-02-17T13:32:44.925Z,8.00
2018-02-17T13:35:12.360Z,8.00
2018-02-17T13:37:39.781Z,7.90
2018-02-17T13:40:07.238Z,7.90
2018-02-17T13:42:34.719Z,7.90
2018-02-17T13:45:02.964Z,7.90
2018-02-17T13:47:30.408Z,7.90
2018-02-17T13:49:57.842Z,7.90
2018-02-17T13:52:25.333Z,7.90
2018-02-17T13:54:52.783Z,8.00
2018-02-17T13:57:20.218Z,8.10
2018-02-17T13:59:47.659Z,8.20
2018-02-17T14:02:15.874Z,8.30
2018-02-17T14:04:43.311Z,8.30
2018-02-17T14:07:10.733Z,8.40
2018-02-17T14:09:38.965Z,8.50
2018-02-17T14:12:06.423Z,8.50
2018-02-17T14:14:33.858Z,8.60
2018-02-17T14:17:01.312Z,8.60
2018-02-17T14:19:28.792Z,8.70
2018-02-17T14:21:56.223Z,8.80
2018-02-17T14:24:23.701Z,8.90
2018-02-17T14:26:51.154Z,8.90
2018-02-17T14:29:18.561Z,8.80
2018-02-17T14:31:45.996Z,8.70
2018-02-17T14:34:13.555Z,8.70
2018-02-17T14:36:40.987Z,8.60
2018-02-17T14:39:08.424Z,8.80
2018-02-17T14:41:35.910Z,8.90
2018-02-17T14:44:03.356Z,9.00
2018-02-17T14:46:30.829Z,9.10
2018-02-17T14:48:58.413Z,9.10
2018-02-17T14:51:25.785Z,9.10
2018-02-17T14:53:54.012Z,9.20
2018-02-17T14:56:21.449Z,9.20
2018-02-17T14:58:48.923Z,9.30
2018-02-17T15:01:16.365Z,9.30
2018-02-17T15:03:43.797Z,9.30
2018-02-17T15:06:12.001Z,9.20
2018-02-17T15:08:39.472Z,9.30
2018-02-17T15:11:06.904Z,9.30
2018-02-17T15:13:34.385Z,9.20
2018-02-17T15:16:01.837Z,9.20
2018-02-17T15:18:29.258Z,9.10
2018-02-17T15:20:57.466Z,9.20
2018-02-17T15:23:24.934Z,9.20
2018-02-17T15:25:52.396Z,9.40
2018-02-17T15:28:19.830Z,9.40
2018-02-17T15:30:47.260Z,9.60
2018-02-17T15:33:15.457Z,9.80
2018-02-17T15:35:42.886Z,9.80
2018-02-17T15:38:11.104Z,9.90
2018-02-17T15:40:38.573Z,9.90
2018-02-17T15:43:06.013Z,9.90
2018-02-17T15:45:33.458Z,10.00
2018-02-17T15:48:00.896Z,10.00
2018-02-17T15:50:29.112Z,9.70
2018-02-17T15:52:56.558Z,9.70
2018-02-17T15:55:24.024Z,9.70
2018-02-17T15:57:51.538Z,9.60
2018-02-17T16:00:19.746Z,9.30
2018-02-17T16:02:47.221Z,9.30
2018-02-17T16:05:14.716Z,9.10
2018-02-17T16:07:42.240Z,8.90
2018-02-17T16:10:09.685Z,8.70
2018-02-17T16:12:37.108Z,8.60
2018-02-17T16:15:07.364Z,8.30
2018-02-17T16:17:34.868Z,8.20
2018-02-17T16:20:03.049Z,8.00
2018-02-17T16:22:31.267Z,7.80
2018-02-17T16:24:58.733Z,7.80
2018-02-17T16:27:26.164Z,7.70
2018-02-17T16:29:53.605Z,7.60
2018-02-17T16:32:21.801Z,7.30
2018-02-17T16:34:49.226Z,7.30
2018-02-17T16:37:17.433Z,7.00
2018-02-17T16:39:44.857Z,7.00
2018-02-17T16:42:13.056Z,6.80
2018-02-17T16:44:40.501Z,6.80
2018-02-17T16:47:08.701Z,6.60
2018-02-17T16:49:36.124Z,6.60
2018-02-17T16:52:04.337Z,6.50
2018-02-17T16:54:31.767Z,6.50
2018-02-17T16:56:59.209Z,6.40
2018-02-17T16:59:26.650Z,6.30
2018-02-17T17:01:54.077Z,6.30
2018-02-17T17:04:22.272Z,6.10
2018-02-17T17:06:50.483Z,6.10
2018-02-17T17:09:17.918Z,6.10
2018-02-17T17:11:45.341Z,6.10
2018-02-17T17:14:13.618Z,5.90
2018-02-17T17:16:40.990Z,5.90
2018-02-17T17:19:09.184Z,5.80
2018-02-17T17:21:36.679Z,5.80
2018-02-17T17:24:04.108Z,5.80
2018-02-17T17:26:31.547Z,5.60
2018-02-17T17:28:58.988Z,5.60
2018-02-17T17:31:27.239Z,5.50
2018-02-17T17:33:54.708Z,5.50
2018-02-17T17:36:22.220Z,5.50
2018-02-17T17:38:49.681Z,5.40
2018-02-17T17:41:17.116Z,5.30
2018-02-17T17:43:44.564Z,5.30
2018-02-17T17:46:12.759Z,5.20
2018-02-17T17:48:40.193Z,5.10
2018-02-17T17:51:07.632Z,5.10
2018-02-17T17:53:35.833Z,5.00
2018-02-17T17:56:03.320Z,5.00
2018-02-17T17:58:30.761Z,5.00
2018-02-17T18:00:58.194Z,4.80
2018-02-17T18:03:25.633Z,4.70
2018-02-17T18:05:53.841Z,4.50
2018-02-17T18:08:21.278Z,4.50
2018-02-17T18:10:49.489Z,4.20
2018-02-17T18:13:16.958Z,4.20
2018-02-17T18:15:44.391Z,4.10
2018-02-17T18:18:11.861Z,4.00
2018-02-17T18:20:39.297Z,4.00
2018-02-17T18:23:06.736Z,3.80
2018-02-17T18:25:34.941Z,3.70
2018-02-17T18:28:02.404Z,3.70
2018-02-17T18:30:29.841Z,3.60
2018-02-17T18:32:57.264Z,3.60
2018-02-17T18:35:25.497Z,3.40
2018-02-17T18:37:52.960Z,3.40
2018-02-17T18:40:20.389Z,3.30
2018-02-17T18:42:47.867Z,3.20
2018-02-17T18:45:15.297Z,3.10
2018-02-17T18:47:42.728Z,3.00
2018-02-17T18:50:10.968Z,2.90
2018-02-17T18:52:38.404Z,2.90
2018-02-17T18:55:05.837Z,2.80
2018-02-17T18:57:33.329Z,2.80
2018-02-17T19:00:00.752Z,2.70
2018-02-17T19:02:28.188Z,2.70
2018-02-17T19:04:56.398Z,2.50
2018-02-17T19:07:23.872Z,2.50
2018-02-17T19:09:51.361Z,2.40
2018-02-17T19:12:18.805Z,2.30
2018-02-17T19:14:46.235Z,2.20
2018-02-17T19:17:13.733Z,2.10
2018-02-17T19:19:41.157Z,2.00
2018-02-17T19:22:08.580Z,1.90
2018-02-17T19:24:36.021Z,1.90
2018-02-17T19:27:04.224Z,1.90
2018-02-17T19:29:31.653Z,1.80
2018-02-17T19:31:59.857Z,1.80
2018-02-17T19:34:27.298Z,1.80
2018-02-17T19:36:55.514Z,1.70
2018-02-17T19:39:22.958Z,1.70
2018-02-17T19:41:50.384Z,1.60
2018-02-17T19:44:18.596Z,1.60
2018-02-17T19:46:46.028Z,1.60
2018-02-17T19:49:13.464Z,1.50
2018-02-17T19:51:41.684Z,1.50
2018-02-17T19:54:09.161Z,1.50
2018-02-17T19:56:36.601Z,1.50
2018-02-17T19:59:04.029Z,1.50
2018-02-17T20:01:31.464Z,1.40
2018-02-17T20:03:59.679Z,1.30
2018-02-17T20:06:27.109Z,1.30
2018-02-17T20:08:55.310Z,1.30
2018-02-17T20:11:22.776Z,1.20
2018-02-17T20:13:50.252Z,1.20
2018-02-17T20:16:17.692Z,1.20
2018-02-17T20:18:45.123Z,1.20
2018-02-17T20:21:12.544Z,1.20
2018-02-17T20:23:40.068Z,1.10
2018-02-17T20:26:07.533Z,1.10
2018-02-17T20:28:34.998Z,1.10
2018-02-17T20:31:02.530Z,1.00
2018-02-17T20:33:29.953Z,1.00
2018-02-17T20:35:58.155Z,1.00
2018-02-17T20:38:25.577Z,1.00
2018-02-17T20:40:53.894Z,0.90
2018-02-17T20:43:21.385Z,0.90
2018-02-17T20:45:49.553Z,0.80
2018-02-17T20:48:16.989Z,0.80
2018-02-17T20:50:44.447Z,0.80
2018-02-17T20:53:11.873Z,0.70
2018-02-17T20:55:39.390Z,0.70
2018-02-17T20:58:06.821Z,0.70
2018-02-17T21:00:34.292Z,0.70
2018-02-17T21:03:02.564Z,0.60
2018-02-17T21:05:30.013Z,0.60
2018-02-17T21:07:57.458Z,0.60
2018-02-17T21:10:24.885Z,0.50
2018-02-17T21:12:53.102Z,0.50
2018-02-17T21:15:20.533Z,0.40
2018-02-17T21:17:47.973Z,0.40
2018-02-17T21:20:16.178Z,0.40
2018-02-17T21:22:43.612Z,0.30
2018-02-17T21:25:11.108Z,0.40
2018-02-17T21:27:38.536Z,0.30
2018-02-17T21:30:06.025Z,0.30
2018-02-17T21:32:33.463Z,0.30
2018-02-17T21:35:00.876Z,0.30
2018-02-17T21:37:29.101Z,0.20
2018-02-17T21:39:56.556Z,0.20
2018-02-17T21:42:24.013Z,0.20
2018-02-17T21:44:51.440Z,0.10
2018-02-17T21:47:18.881Z,0.10
2018-02-17T21:49:47.086Z,0.10
2018-02-17T21:52:14.600Z,0.10
2018-02-17T21:54:42.048Z,0.00
2018-02-17T21:57:09.485Z,0.00
2018-02-17T21:59:36.909Z,0.00
2018-02-17T22:02:04.351Z,0.00
2018-02-17T22:04:32.564Z,-0.10
2018-02-17T22:07:00.012Z,-0.10
2018-02-17T22:09:27.494Z,-0.10
2018-02-17T22:11:54.980Z,-0.10
2018-02-17T22:14:22.457Z,-0.10
2018-02-17T22:16:50.721Z,-0.20
2018-02-17T22:19:18.234Z,-0.20
2018-02-17T22:21:45.688Z,-0.30
2018-02-17T22:24:13.149Z,-0.30
2018-02-17T22:26:40.605Z,-0.40
2018-02-17T22:29:08.048Z,-0.40
2018-02-17T22:31:35.540Z,-0.40
2018-02-17T22:34:02.973Z,-0.40
2018-02-17T22:36:30.418Z,-0.50
2018-02-17T22:38:57.901Z,-0.50
2018-02-17T22:41:25.325Z,-0.50
2018-02-17T22:43:52.765Z,-0.60
2018-02-17T22:46:20.270Z,-0.60
2018-02-17T22:48:47.712Z,-0.60
2018-02-17T22:51:15.193Z,-0.60
2018-02-17T22:53:42.637Z,-0.70
2018-02-17T22:56:10.089Z,-0.70
2018-02-17T22:58:37.561Z,-0.70
2018-02-17T23:01:05.012Z,-0.80
2018-02-17T23:03:32.456Z,-0.80
2018-02-17T23:05:59.893Z,-0.80
2018-02-17T23:08:27.345Z,-0.80
2018-02-17T23:10:54.777Z,-0.80
2018-02-17T23:13:23.006Z,-0.90
2018-02-17T23:15:50.453Z,-0.90
2018-02-17T23:18:17.887Z,-0.90
2018-02-17T23:20:45.317Z,-0.90
2018-02-17T23:23:12.832Z,-1.00
2018-02-17T23:25:40.265Z,-1.00
2018-02-17T23:28:07.693Z,-1.00
2018-02-17T23:30:35.213Z,-1.00
2018-02-17T23:33:02.656Z,-1.00
2018-02-17T23:35:30.084Z,-1.10
2018-02-17T23:37:58.289Z,-1.10
2018-02-17T23:40:25.730Z,-1.10
2018-02-17T23:42:53.156Z,-1.10
2018-02-17T23:45:21.370Z,-1.20
2018-02-17T23:47:48.805Z,-1.20
2018-02-17T23:50:17.005Z,-1.20
2018-02-17T23:52:44.436Z,-1.20
2018-02-17T23:55:11.969Z,-1.20
2018-02-17T23:57:39.496Z,-1.20
